Time;durP1;ratioP1;P1;durP2;ratioP2;P2;SDS_P1;SDS_P2;PMS_P1;PMS_P2;Temp;Humidity;BMP_temperature;BMP_pressure;BME280_temperature;BME280_humidity;BME280_pressure;Samples;Min_cycle;Max_cycle;Signal;HPM_P1;HPM_P2
2023/07/29 00:00:36;;;;;;;5.57;3.88;;;;;;;;;;5031228;28;20025;-88
2023/07/29 00:03:02;;;;;;;6.05;4.43;;;;;;;;;;5031044;28;20071;-89
2023/07/29 00:05:27;;;;;;;5.60;4.25;;;;;;;;;;5027274;28;20033;-89
2023/07/29 00:07:52;;;;;;;6.03;4.10;;;;;;;;;;5030834;28;20470;-87
2023/07/29 00:10:18;;;;;;;4.90;3.70;;;;;;;;;;5032434;28;20105;-88
2023/07/29 00:12:43;;;;;;;5.90;4.22;;;;;;;;;;5032397;28;20105;-89
2023/07/29 00:15:09;;;;;;;5.47;4.50;;;;;;;;;;5031097;28;20022;-89
2023/07/29 00:17:34;;;;;;;6.28;4.40;;;;;;;;;;5030948;28;20026;-88
2023/07/29 00:20:00;;;;;;;6.85;5.25;;;;;;;;;;5031491;28;20037;-87
2023/07/29 00:22:25;;;;;;;6.50;4.95;;;;;;;;;;5033760;28;20029;-89
2023/07/29 00:24:54;;;;;;;6.63;4.63;;;;;;;;;;5036164;28;20029;-89
2023/07/29 00:27:20;;;;;;;6.35;4.78;;;;;;;;;;5034812;28;20462;-88
2023/07/29 00:29:45;;;;;;;6.88;4.85;;;;;;;;;;5034134;28;20036;-89
2023/07/29 00:32:10;;;;;;;6.72;5.10;;;;;;;;;;5036077;28;20025;-89
2023/07/29 00:34:36;;;;;;;7.43;4.82;;;;;;;;;;5035895;28;20029;-89
2023/07/29 00:37:01;;;;;;;8.02;5.32;;;;;;;;;;5034331;28;20017;-87
2023/07/29 00:39:26;;;;;;;6.10;4.70;;;;;;;;;;5033742;28;20029;-88
2023/07/29 00:41:52;;;;;;;5.75;4.38;;;;;;;;;;5034518;28;20426;-88
2023/07/29 00:44:17;;;;;;;7.30;5.57;;;;;;;;;;5036140;28;20431;-88
2023/07/29 00:46:45;;;;;;;6.00;4.45;;;;;;;;;;5034751;28;20056;-86
2023/07/29 00:49:11;;;;;;;6.80;5.05;;;;;;;;;;5036323;28;20113;-88
2023/07/29 00:51:37;;;;;;;6.40;5.00;;;;;;;;;;5034681;28;20497;-87
2023/07/29 00:54:02;;;;;;;6.57;5.07;;;;;;;;;;5034885;28;20112;-88
2023/07/29 00:56:28;;;;;;;7.18;5.25;;;;;;;;;;5029148;28;20025;-88
2023/07/29 00:58:58;;;;;;;7.25;4.93;;;;;;;;;;5033065;28;20448;-88
2023/07/29 01:03:59;;;;;;;7.95;5.80;;;;;;;;;;5566349;22;20512;-86
2023/07/29 01:06:35;;;;;;;9.10;5.20;;;;;;;;;;5033637;28;20033;-77
2023/07/29 01:09:06;;;;;;;6.10;4.43;;;;;;;;;;5018562;28;20021;-77
2023/07/29 01:12:19;;;;;;;6.38;4.78;;;;;;;;;;5026867;28;20451;-77
2023/07/29 01:15:23;;;;;;;7.30;5.13;;;;;;;;;;4956710;28;20177;-78
2023/07/29 01:18:02;;;;;;;6.15;4.43;;;;;;;;;;5008071;28;20420;-78
2023/07/29 01:20:32;;;;;;;5.78;4.45;;;;;;;;;;5019810;28;20378;-78
2023/07/29 01:22:58;;;;;;;7.00;4.32;;;;;;;;;;5020662;28;20022;-78
2023/07/29 01:25:23;;;;;;;5.80;4.10;;;;;;;;;;5025422;28;20033;-77
2023/07/29 01:27:52;;;;;;;6.68;4.35;;;;;;;;;;4997808;28;20121;-77
2023/07/29 01:30:21;;;;;;;6.65;4.60;;;;;;;;;;5034095;28;20033;-78
2023/07/29 01:33:04;;;;;;;8.50;4.93;;;;;;;;;;5015956;28;20025;-77
2023/07/29 01:35:39;;;;;;;6.88;4.20;;;;;;;;;;5034148;28;20021;-77
2023/07/29 01:38:31;;;;;;;9.75;4.88;;;;;;;;;;5018671;28;20030;-78
2023/07/29 01:40:59;;;;;;;10.55;5.15;;;;;;;;;;5033341;28;20025;-77
2023/07/29 01:43:25;;;;;;;5.88;4.43;;;;;;;;;;5046709;28;20053;-77
2023/07/29 01:45:51;;;;;;;6.63;4.40;;;;;;;;;;5030945;28;20021;-77
2023/07/29 01:48:17;;;;;;;6.57;4.38;;;;;;;;;;5019791;28;20024;-77
2023/07/29 01:50:42;;;;;;;6.65;4.13;;;;;;;;;;5019762;28;20017;-77
2023/07/29 01:53:08;;;;;;;6.63;3.47;;;;;;;;;;5040128;28;20028;-77
2023/07/29 01:55:33;;;;;;;5.80;3.78;;;;;;;;;;5034318;28;20025;-78
2023/07/29 01:57:59;;;;;;;8.07;3.80;;;;;;;;;;5024527;28;20024;-77
2023/07/29 02:00:24;;;;;;;4.90;3.25;;;;;;;;;;5033731;28;20025;-77
2023/07/29 02:02:49;;;;;;;6.30;3.58;;;;;;;;;;5037974;28;20066;-77
2023/07/29 02:05:15;;;;;;;6.90;3.42;;;;;;;;;;5015045;28;20481;-77
2023/07/29 02:07:40;;;;;;;4.35;2.92;;;;;;;;;;4996434;28;20022;-77
2023/07/29 02:10:07;;;;;;;4.55;2.97;;;;;;;;;;4997472;28;20481;-77
2023/07/29 02:12:33;;;;;;;6.53;2.83;;;;;;;;;;4996176;28;20500;-77
2023/07/29 02:14:58;;;;;;;9.77;3.00;;;;;;;;;;5015318;28;20034;-87
2023/07/29 02:17:23;;;;;;;4.32;2.58;;;;;;;;;;5015536;28;20025;-86
2023/07/29 02:19:49;;;;;;;4.47;2.92;;;;;;;;;;4997643;28;20038;-88
2023/07/29 02:22:15;;;;;;;4.07;2.50;;;;;;;;;;4997895;28;20022;-88
2023/07/29 02:24:41;;;;;;;5.60;2.72;;;;;;;;;;4999271;28;20018;-86
2023/07/29 02:27:06;;;;;;;6.63;2.67;;;;;;;;;;4999565;28;20084;-88
2023/07/29 02:29:32;;;;;;;3.08;2.00;;;;;;;;;;5013197;28;20113;-85
2023/07/29 02:31:58;;;;;;;4.28;2.20;;;;;;;;;;5014728;28;20034;-88
2023/07/29 02:34:23;;;;;;;5.35;2.30;;;;;;;;;;4981342;28;20370;-86
2023/07/29 02:36:49;;;;;;;5.40;2.42;;;;;;;;;;5014598;28;20024;-87
2023/07/29 02:39:14;;;;;;;5.28;2.20;;;;;;;;;;4997730;28;20033;-85
2023/07/29 02:41:40;;;;;;;3.22;2.05;;;;;;;;;;5000519;28;20393;-87
2023/07/29 02:44:05;;;;;;;3.65;2.10;;;;;;;;;;5013985;28;20022;-87
2023/07/29 02:46:31;;;;;;;4.07;1.90;;;;;;;;;;4997029;28;20017;-87
2023/07/29 02:48:56;;;;;;;4.50;1.85;;;;;;;;;;4996794;28;20026;-87
2023/07/29 02:51:21;;;;;;;3.10;1.80;;;;;;;;;;5014555;28;20101;-87
2023/07/29 02:53:47;;;;;;;5.20;2.03;;;;;;;;;;5002485;28;20028;-88
2023/07/29 02:56:12;;;;;;;3.00;1.80;;;;;;;;;;5016064;28;20022;-87
2023/07/29 02:58:38;;;;;;;3.15;1.90;;;;;;;;;;5002653;28;20057;-87
2023/07/29 03:01:04;;;;;;;4.80;1.95;;;;;;;;;;5013854;28;20022;-87
2023/07/29 03:03:31;;;;;;;3.80;1.70;;;;;;;;;;5004372;28;20440;-86
2023/07/29 03:06:01;;;;;;;3.13;1.70;;;;;;;;;;5013913;28;20037;-87
2023/07/29 03:08:26;;;;;;;3.22;1.60;;;;;;;;;;4996971;28;20051;-88
2023/07/29 03:10:51;;;;;;;3.53;1.50;;;;;;;;;;5014181;28;20026;-88
2023/07/29 03:13:17;;;;;;;2.63;1.30;;;;;;;;;;5002529;28;20025;-87
2023/07/29 03:15:42;;;;;;;4.40;1.60;;;;;;;;;;5003605;28;20021;-87
2023/07/29 03:18:07;;;;;;;4.20;1.90;;;;;;;;;;5015813;28;20030;-88
2023/07/29 03:20:33;;;;;;;2.45;1.48;;;;;;;;;;5013997;28;20022;-88
2023/07/29 03:22:58;;;;;;;3.00;1.45;;;;;;;;;;4997125;28;20072;-87
2023/07/29 03:25:24;;;;;;;2.38;1.40;;;;;;;;;;4995319;28;20018;-87
2023/07/29 03:27:49;;;;;;;4.10;1.50;;;;;;;;;;4995072;28;20024;-87
2023/07/29 03:30:15;;;;;;;2.25;1.38;;;;;;;;;;5015323;28;20018;-86
2023/07/29 03:32:45;;;;;;;3.22;1.50;;;;;;;;;;4993332;28;20018;-87
2023/07/29 03:35:10;;;;;;;2.47;1.40;;;;;;;;;;5011612;28;20473;-87
2023/07/29 03:37:36;;;;;;;2.67;1.33;;;;;;;;;;5012478;28;20064;-86
2023/07/29 03:40:02;;;;;;;2.53;1.35;;;;;;;;;;4995209;28;20029;-87
2023/07/29 03:42:28;;;;;;;2.67;1.20;;;;;;;;;;4994953;28;20037;-87
2023/07/29 03:44:53;;;;;;;2.50;1.20;;;;;;;;;;4995267;28;20035;-87
2023/07/29 03:47:19;;;;;;;5.78;1.27;;;;;;;;;;5013072;28;20028;-86
2023/07/29 03:49:44;;;;;;;2.30;1.40;;;;;;;;;;5012979;28;20026;-87
2023/07/29 03:52:10;;;;;;;3.67;1.50;;;;;;;;;;5012929;28;20079;-87
2023/07/29 03:54:35;;;;;;;4.18;1.40;;;;;;;;;;4995766;28;20442;-87
2023/07/29 03:57:01;;;;;;;3.38;1.42;;;;;;;;;;5013934;28;20525;-86
2023/07/29 03:59:26;;;;;;;2.05;1.27;;;;;;;;;;5016609;28;20422;-86
2023/07/29 04:01:52;;;;;;;2.40;1.10;;;;;;;;;;5014290;28;20432;-86
2023/07/29 04:04:17;;;;;;;3.08;1.45;;;;;;;;;;5017094;28;20030;-86
2023/07/29 04:06:42;;;;;;;4.20;1.40;;;;;;;;;;4998665;28;20388;-87
2023/07/29 04:09:09;;;;;;;3.75;1.60;;;;;;;;;;4999315;28;20029;-87
2023/07/29 04:11:34;;;;;;;2.30;1.38;;;;;;;;;;5016162;28;20018;-87
2023/07/29 04:14:00;;;;;;;3.67;1.75;;;;;;;;;;5016366;28;20022;-87
2023/07/29 04:16:26;;;;;;;2.88;1.38;;;;;;;;;;4998572;28;20025;-87
2023/07/29 04:18:51;;;;;;;3.30;1.40;;;;;;;;;;4998661;28;20026;-87
2023/07/29 04:21:17;;;;;;;2.97;1.30;;;;;;;;;;4999151;28;20022;-85
2023/07/29 04:23:42;;;;;;;4.32;1.45;;;;;;;;;;5016153;28;20044;-87
2023/07/29 04:26:07;;;;;;;2.47;1.42;;;;;;;;;;5003797;28;20049;-87
2023/07/29 04:28:33;;;;;;;2.65;1.40;;;;;;;;;;4993191;28;20032;-86
2023/07/29 04:30:59;;;;;;;4.22;1.65;;;;;;;;;;5016188;28;20034;-85
2023/07/29 04:33:25;;;;;;;3.85;1.73;;;;;;;;;;4998470;28;20544;-86
2023/07/29 04:35:50;;;;;;;4.07;2.00;;;;;;;;;;5001987;28;20034;-87
2023/07/29 04:38:15;;;;;;;3.30;1.80;;;;;;;;;;5001459;28;20509;-86
2023/07/29 04:40:41;;;;;;;3.75;2.00;;;;;;;;;;4998546;28;20018;-87
2023/07/29 04:43:06;;;;;;;5.60;2.50;;;;;;;;;;5017575;28;20022;-76
2023/07/29 04:45:32;;;;;;;6.10;2.42;;;;;;;;;;5015533;28;20029;-76
2023/07/29 04:47:58;;;;;;;3.15;1.80;;;;;;;;;;5000527;28;20021;-77
2023/07/29 04:50:24;;;;;;;2.90;1.90;;;;;;;;;;4996497;28;20487;-76
2023/07/29 04:52:49;;;;;;;3.03;2.00;;;;;;;;;;5015438;28;20075;-76
2023/07/29 04:55:15;;;;;;;3.55;2.03;;;;;;;;;;5016999;28;20025;-77
2023/07/29 04:57:40;;;;;;;3.58;1.95;;;;;;;;;;4996327;28;20465;-77
2023/07/29 05:00:06;;;;;;;3.97;2.60;;;;;;;;;;5015051;28;20038;-76
2023/07/29 05:02:32;;;;;;;4.65;2.03;;;;;;;;;;4999117;28;20041;-76
2023/07/29 05:04:57;;;;;;;4.95;2.40;;;;;;;;;;4998098;28;20040;-77
2023/07/29 05:07:22;;;;;;;4.18;2.60;;;;;;;;;;5014761;28;20022;-76
2023/07/29 05:09:48;;;;;;;10.00;2.90;;;;;;;;;;5002647;28;20040;-76
2023/07/29 05:12:14;;;;;;;4.75;2.58;;;;;;;;;;5015780;28;20057;-76
2023/07/29 05:14:39;;;;;;;5.30;3.03;;;;;;;;;;5014984;28;20105;-76
2023/07/29 05:17:05;;;;;;;5.15;2.22;;;;;;;;;;5015038;28;20465;-76
2023/07/29 05:19:30;;;;;;;4.32;3.00;;;;;;;;;;5014776;28;20113;-76
2023/07/29 05:21:57;;;;;;;4.80;3.13;;;;;;;;;;4996550;28;20021;-77
2023/07/29 05:24:23;;;;;;;4.20;2.85;;;;;;;;;;5013422;28;20056;-76
2023/07/29 05:26:48;;;;;;;5.88;3.08;;;;;;;;;;4997156;28;20462;-76
2023/07/29 05:29:14;;;;;;;5.18;3.03;;;;;;;;;;5004496;28;20026;-76
2023/07/29 05:31:39;;;;;;;7.80;3.08;;;;;;;;;;5001797;28;20065;-77
2023/07/29 05:34:04;;;;;;;5.75;2.80;;;;;;;;;;5009609;28;20028;-77
2023/07/29 05:36:30;;;;;;;6.65;2.83;;;;;;;;;;4993934;28;20022;-77
2023/07/29 05:38:55;;;;;;;4.22;2.40;;;;;;;;;;5014586;28;20030;-77
2023/07/29 05:41:21;;;;;;;4.20;2.83;;;;;;;;;;4996879;28;20021;-76
2023/07/29 05:43:47;;;;;;;5.38;3.00;;;;;;;;;;5012942;28;20033;-76
2023/07/29 05:46:12;;;;;;;6.25;2.83;;;;;;;;;;5003969;28;20018;-76
2023/07/29 05:48:38;;;;;;;5.00;2.53;;;;;;;;;;4996939;28;20024;-76
2023/07/29 05:51:05;;;;;;;5.13;2.70;;;;;;;;;;5015589;28;20029;-76
2023/07/29 05:53:31;;;;;;;4.95;2.78;;;;;;;;;;4996928;28;20030;-77
2023/07/29 05:55:56;;;;;;;4.43;2.63;;;;;;;;;;5011548;28;20056;-77
2023/07/29 05:58:21;;;;;;;6.32;2.85;;;;;;;;;;5014566;28;20381;-77
2023/07/29 06:00:47;;;;;;;5.63;2.90;;;;;;;;;;4996434;28;20025;-77
2023/07/29 06:03:12;;;;;;;5.80;3.10;;;;;;;;;;5001063;28;20464;-77
2023/07/29 06:05:38;;;;;;;7.15;3.05;;;;;;;;;;4996156;28;20022;-78
2023/07/29 06:08:04;;;;;;;4.40;2.70;;;;;;;;;;4993042;28;20121;-77
2023/07/29 06:10:29;;;;;;;6.40;2.90;;;;;;;;;;4999805;28;20112;-77
2023/07/29 06:12:55;;;;;;;4.93;2.17;;;;;;;;;;5017874;28;20100;-77
2023/07/29 06:15:22;;;;;;;5.85;3.03;;;;;;;;;;5013776;28;20092;-78
2023/07/29 06:17:48;;;;;;;4.75;2.70;;;;;;;;;;5013796;28;20013;-77
2023/07/29 06:20:13;;;;;;;4.55;2.75;;;;;;;;;;5013861;28;20120;-77
2023/07/29 06:22:38;;;;;;;4.68;3.03;;;;;;;;;;5013602;28;20454;-78
2023/07/29 06:25:04;;;;;;;5.10;3.08;;;;;;;;;;5011890;28;20022;-77
2023/07/29 06:27:29;;;;;;;4.28;2.42;;;;;;;;;;4997109;28;20084;-77
2023/07/29 06:29:55;;;;;;;6.68;3.22;;;;;;;;;;5000449;28;20053;-77
2023/07/29 06:32:20;;;;;;;5.35;3.28;;;;;;;;;;5010911;28;20022;-78
2023/07/29 06:34:46;;;;;;;5.70;3.45;;;;;;;;;;5013647;28;20026;-78
2023/07/29 06:37:11;;;;;;;5.68;3.28;;;;;;;;;;5000180;28;20025;-78
2023/07/29 06:39:37;;;;;;;6.28;3.20;;;;;;;;;;5013281;28;20473;-77
2023/07/29 06:42:02;;;;;;;5.07;3.55;;;;;;;;;;5013766;28;20102;-77
2023/07/29 06:44:28;;;;;;;5.40;3.92;;;;;;;;;;4999195;28;20026;-77
2023/07/29 06:46:53;;;;;;;6.82;3.95;;;;;;;;;;5003180;28;20028;-78
2023/07/29 06:49:19;;;;;;;5.93;3.83;;;;;;;;;;5001974;28;20022;-77
2023/07/29 06:51:44;;;;;;;5.15;3.42;;;;;;;;;;5018828;28;20169;-78
2023/07/29 06:54:09;;;;;;;6.75;4.07;;;;;;;;;;5013653;28;20022;-78
2023/07/29 06:56:35;;;;;;;6.32;4.22;;;;;;;;;;4996573;28;20496;-77
2023/07/29 06:59:00;;;;;;;5.55;3.88;;;;;;;;;;5012785;28;20087;-78
2023/07/29 07:01:26;;;;;;;5.65;4.40;;;;;;;;;;4983844;28;20091;-78
2023/07/29 07:03:54;;;;;;;6.30;4.10;;;;;;;;;;5014417;28;20480;-78
2023/07/29 07:06:20;;;;;;;7.18;4.13;;;;;;;;;;4979999;28;20087;-77
2023/07/29 07:08:46;;;;;;;5.18;4.00;;;;;;;;;;4995166;28;20068;-77
2023/07/29 07:11:11;;;;;;;6.10;3.83;;;;;;;;;;5016471;28;20057;-77
2023/07/29 07:13:37;;;;;;;5.35;3.45;;;;;;;;;;4996461;28;20036;-77
2023/07/29 07:16:02;;;;;;;5.75;3.30;;;;;;;;;;5012764;28;20022;-78
2023/07/29 07:18:27;;;;;;;6.85;3.42;;;;;;;;;;4995992;28;20115;-78
2023/07/29 07:20:53;;;;;;;7.30;3.53;;;;;;;;;;5009986;28;20030;-78
2023/07/29 07:23:18;;;;;;;5.85;3.33;;;;;;;;;;5012767;28;20131;-77
2023/07/29 07:25:44;;;;;;;7.65;3.40;;;;;;;;;;5001617;28;20025;-78
2023/07/29 07:28:10;;;;;;;4.90;3.13;;;;;;;;;;4996319;28;20561;-77
2023/07/29 07:30:39;;;;;;;5.38;3.17;;;;;;;;;;5012647;28;20026;-77
2023/07/29 07:33:04;;;;;;;5.25;3.47;;;;;;;;;;4994983;28;20088;-77
2023/07/29 07:35:29;;;;;;;5.32;3.55;;;;;;;;;;5012678;28;20521;-77
2023/07/29 07:37:55;;;;;;;5.80;3.63;;;;;;;;;;5010608;28;20102;-77
2023/07/29 07:40:20;;;;;;;5.03;3.45;;;;;;;;;;5012488;28;20033;-78
2023/07/29 07:42:46;;;;;;;6.35;3.60;;;;;;;;;;5012540;28;20080;-77
2023/07/29 07:45:11;;;;;;;4.70;3.50;;;;;;;;;;5012805;28;20080;-77
2023/07/29 07:47:36;;;;;;;7.03;3.35;;;;;;;;;;4994890;28;20061;-77
2023/07/29 07:50:02;;;;;;;4.93;3.65;;;;;;;;;;4994688;28;20120;-77
2023/07/29 07:52:28;;;;;;;4.82;3.22;;;;;;;;;;4994761;28;20022;-78
2023/07/29 07:54:53;;;;;;;5.15;2.97;;;;;;;;;;5012661;28;20432;-77
2023/07/29 07:57:21;;;;;;;5.28;2.90;;;;;;;;;;4994868;28;20030;-77
2023/07/29 07:59:46;;;;;;;5.28;2.60;;;;;;;;;;4992585;28;20030;-77
2023/07/29 08:02:12;;;;;;;5.78;2.70;;;;;;;;;;5016313;28;20556;-78
2023/07/29 08:04:37;;;;;;;3.88;2.42;;;;;;;;;;5013283;28;20144;-78
2023/07/29 08:07:03;;;;;;;4.15;2.58;;;;;;;;;;4995263;28;20013;-77
2023/07/29 08:09:28;;;;;;;5.57;2.83;;;;;;;;;;5012229;28;20080;-77
2023/07/29 08:11:53;;;;;;;5.95;3.05;;;;;;;;;;5012391;28;20026;-78
2023/07/29 08:14:19;;;;;;;5.68;2.60;;;;;;;;;;4994196;28;20041;-76
2023/07/29 08:16:44;;;;;;;4.40;2.67;;;;;;;;;;5018289;28;20108;-76
2023/07/29 08:19:10;;;;;;;4.53;2.45;;;;;;;;;;4995242;28;20025;-76
2023/07/29 08:21:36;;;;;;;3.80;2.53;;;;;;;;;;5012283;28;20387;-77
2023/07/29 08:24:01;;;;;;;7.25;2.30;;;;;;;;;;5012243;28;20381;-76
2023/07/29 08:26:26;;;;;;;4.05;2.40;;;;;;;;;;4996782;28;20028;-76
2023/07/29 08:28:52;;;;;;;5.13;2.65;;;;;;;;;;5012112;28;20022;-76
2023/07/29 08:31:17;;;;;;;4.80;2.50;;;;;;;;;;4992837;28;20460;-77
2023/07/29 08:33:43;;;;;;;6.45;2.85;;;;;;;;;;4994908;28;20060;-76
2023/07/29 08:36:08;;;;;;;4.93;2.85;;;;;;;;;;5017874;28;20933;-76
2023/07/29 08:38:33;;;;;;;4.80;2.70;;;;;;;;;;4986348;28;20033;-76
2023/07/29 08:41:28;;;;;;;5.07;2.72;;;;;;;;;;4991327;28;20033;-76
2023/07/29 08:44:10;;;;;;;3.30;2.50;;;;;;;;;;5007357;28;20045;-76
2023/07/29 08:46:35;;;;;;;5.10;2.80;;;;;;;;;;5013045;28;20025;-77
2023/07/29 08:49:02;;;;;;;4.82;2.85;;;;;;;;;;5015560;28;20105;-76
2023/07/29 08:51:29;;;;;;;4.32;3.00;;;;;;;;;;5003010;28;20053;-77
2023/07/29 08:53:55;;;;;;;3.65;2.85;;;;;;;;;;5003318;28;20445;-76
2023/07/29 08:56:20;;;;;;;5.38;3.33;;;;;;;;;;5015180;28;20021;-76
2023/07/29 08:58:47;;;;;;;4.35;2.90;;;;;;;;;;4981462;28;20038;-76
2023/07/29 09:01:12;;;;;;;5.90;3.25;;;;;;;;;;4999846;28;20083;-76
2023/07/29 09:03:38;;;;;;;5.30;3.20;;;;;;;;;;4985345;28;20469;-76
2023/07/29 09:06:03;;;;;;;4.63;3.17;;;;;;;;;;5011259;28;20022;-76
2023/07/29 09:08:29;;;;;;;4.45;3.28;;;;;;;;;;5015149;28;20053;-76
2023/07/29 09:10:55;;;;;;;4.40;3.40;;;;;;;;;;5015660;28;20351;-76
2023/07/29 09:13:21;;;;;;;5.10;3.90;;;;;;;;;;5015224;28;20165;-77
2023/07/29 09:15:47;;;;;;;6.10;4.00;;;;;;;;;;5001891;28;20592;-77
2023/07/29 09:18:16;;;;;;;5.25;3.80;;;;;;;;;;4993823;28;20121;-76
2023/07/29 09:20:42;;;;;;;4.45;3.70;;;;;;;;;;5012394;28;20481;-76
2023/07/29 09:23:12;;;;;;;4.35;3.60;;;;;;;;;;5012113;28;20072;-83
2023/07/29 09:25:39;;;;;;;7.22;3.70;;;;;;;;;;4997491;28;20022;-83
2023/07/29 09:28:12;;;;;;;6.22;4.55;;;;;;;;;;5011838;28;20030;-85
2023/07/29 09:30:39;;;;;;;4.97;4.40;;;;;;;;;;5016610;28;20057;-84
2023/07/29 09:33:05;;;;;;;5.07;3.72;;;;;;;;;;5008989;28;20076;-84
2023/07/29 09:35:33;;;;;;;4.90;4.05;;;;;;;;;;5014449;28;20033;-84
2023/07/29 09:37:58;;;;;;;5.05;3.30;;;;;;;;;;5011271;28;20013;-83
2023/07/29 09:40:24;;;;;;;3.42;2.67;;;;;;;;;;5005483;28;20030;-84
2023/07/29 09:42:55;;;;;;;4.30;3.22;;;;;;;;;;5015332;28;20029;-84
2023/07/29 09:45:26;;;;;;;3.60;2.70;;;;;;;;;;4999956;28;20100;-84
2023/07/29 09:47:56;;;;;;;3.97;2.67;;;;;;;;;;5015201;28;20083;-83
2023/07/29 09:50:26;;;;;;;5.07;2.88;;;;;;;;;;4997609;28;20025;-83
2023/07/29 09:52:53;;;;;;;4.30;2.42;;;;;;;;;;5015210;28;20026;-84
2023/07/29 09:55:19;;;;;;;3.75;2.20;;;;;;;;;;5014172;28;20381;-83
2023/07/29 09:57:45;;;;;;;3.58;2.08;;;;;;;;;;5014923;28;20072;-85
2023/07/29 10:00:12;;;;;;;5.10;1.83;;;;;;;;;;4997781;28;20112;-84
2023/07/29 10:02:39;;;;;;;3.50;2.00;;;;;;;;;;5016371;28;20022;-83
2023/07/29 10:05:06;;;;;;;3.45;1.90;;;;;;;;;;4999825;28;20030;-84
2023/07/29 10:07:33;;;;;;;3.95;2.13;;;;;;;;;;5011874;28;20024;-83
2023/07/29 10:10:00;;;;;;;2.90;2.00;;;;;;;;;;5006856;28;20080;-84
2023/07/29 10:12:25;;;;;;;5.20;1.98;;;;;;;;;;5014736;28;20104;-84
2023/07/29 10:14:52;;;;;;;3.85;2.30;;;;;;;;;;5015845;28;20061;-83
2023/07/29 10:17:20;;;;;;;3.42;2.33;;;;;;;;;;4997375;28;20434;-82
2023/07/29 10:19:47;;;;;;;3.05;2.20;;;;;;;;;;4996722;28;20034;-82
2023/07/29 10:22:15;;;;;;;4.32;2.10;;;;;;;;;;5014172;28;20042;-83
2023/07/29 10:24:43;;;;;;;2.97;2.20;;;;;;;;;;4996835;28;20037;-82
2023/07/29 10:27:11;;;;;;;3.20;2.30;;;;;;;;;;5011332;28;20079;-82
2023/07/29 10:29:41;;;;;;;3.53;2.00;;;;;;;;;;5003462;28;20025;-83
2023/07/29 10:32:08;;;;;;;3.47;2.20;;;;;;;;;;5017875;28;20034;-83
2023/07/29 10:34:36;;;;;;;3.05;2.08;;;;;;;;;;5000308;28;20057;-80
2023/07/29 10:37:02;;;;;;;3.25;2.05;;;;;;;;;;5013600;28;20022;-83
2023/07/29 10:39:32;;;;;;;8.35;2.33;;;;;;;;;;4996241;28;20030;-82
2023/07/29 10:42:00;;;;;;;4.40;2.20;;;;;;;;;;5011922;28;20064;-83
2023/07/29 10:44:43;;;;;;;2.60;1.70;;;;;;;;;;4994290;28;20026;-81
2023/07/29 10:47:13;;;;;;;2.88;1.75;;;;;;;;;;5013751;28;20116;-83
2023/07/29 10:49:47;;;;;;;3.72;1.90;;;;;;;;;;4996014;28;20025;-83
2023/07/29 10:52:14;;;;;;;3.92;2.08;;;;;;;;;;5003174;28;20022;-83
2023/07/29 10:54:44;;;;;;;3.92;1.70;;;;;;;;;;5013721;28;20159;-83
2023/07/29 10:57:37;;;;;;;3.13;1.50;;;;;;;;;;5019212;28;20481;-83
2023/07/29 11:00:04;;;;;;;3.20;1.55;;;;;;;;;;5008898;28;20541;-83
2023/07/29 11:02:36;;;;;;;2.90;1.80;;;;;;;;;;5001474;28;20069;-81
2023/07/29 11:05:17;;;;;;;3.53;1.90;;;;;;;;;;4998250;28;20452;-83
2023/07/29 11:07:47;;;;;;;4.15;2.03;;;;;;;;;;5003973;28;20504;-82
2023/07/29 11:10:13;;;;;;;3.17;1.85;;;;;;;;;;5011756;28;20367;-83
2023/07/29 11:12:48;;;;;;;3.28;1.98;;;;;;;;;;5013265;28;20034;-83
2023/07/29 11:15:45;;;;;;;4.10;1.88;;;;;;;;;;4987041;28;20068;-83
2023/07/29 11:18:15;;;;;;;3.97;2.00;;;;;;;;;;4983725;28;20044;-83
2023/07/29 11:20:40;;;;;;;4.13;1.95;;;;;;;;;;5012845;28;20037;-82
2023/07/29 11:23:05;;;;;;;10.82;3.53;;;;;;;;;;5014733;28;20022;-84
2023/07/29 11:25:33;;;;;;;10.60;2.90;;;;;;;;;;5027127;28;20053;-85
2023/07/29 11:28:00;;;;;;;8.40;2.63;;;;;;;;;;5021730;28;20014;-86
2023/07/29 11:30:29;;;;;;;10.57;3.10;;;;;;;;;;5010446;28;20164;-90
2023/07/29 11:32:55;;;;;;;6.45;1.60;;;;;;;;;;5008591;28;20025;-87
2023/07/29 11:35:21;;;;;;;7.95;0.90;;;;;;;;;;5020297;28;20079;-83
2023/07/29 11:37:51;;;;;;;4.55;0.80;;;;;;;;;;5013999;28;20018;-87
2023/07/29 11:40:21;;;;;;;4.60;0.90;;;;;;;;;;5002726;28;20030;-85
2023/07/29 11:42:50;;;;;;;3.80;0.70;;;;;;;;;;4997027;28;20117;-86
2023/07/29 11:45:15;;;;;;;1.58;0.70;;;;;;;;;;5012421;28;20030;-79
2023/07/29 11:47:42;;;;;;;1.88;0.63;;;;;;;;;;5001638;28;20056;-79
2023/07/29 11:50:09;;;;;;;2.13;0.60;;;;;;;;;;5018662;28;20022;-79
2023/07/29 11:52:36;;;;;;;2.22;0.60;;;;;;;;;;4998351;28;20080;-79
2023/07/29 11:55:03;;;;;;;2.72;0.70;;;;;;;;;;5010009;28;20092;-79
2023/07/29 11:57:33;;;;;;;2.58;0.75;;;;;;;;;;4999185;28;20022;-79
2023/07/29 11:59:59;;;;;;;2.08;0.80;;;;;;;;;;5012952;28;20470;-79
2023/07/29 12:02:25;;;;;;;3.42;0.85;;;;;;;;;;5003525;28;20018;-79
2023/07/29 12:04:52;;;;;;;3.00;1.08;;;;;;;;;;5017043;28;20028;-78
2023/07/29 12:07:18;;;;;;;2.90;1.60;;;;;;;;;;5012051;28;20006;-78
2023/07/29 12:09:44;;;;;;;4.65;1.83;;;;;;;;;;5012431;28;20061;-79
2023/07/29 12:12:10;;;;;;;3.45;1.50;;;;;;;;;;5012238;28;20029;-78
2023/07/29 12:14:35;;;;;;;3.30;1.38;;;;;;;;;;4991368;28;20104;-78
2023/07/29 12:17:06;;;;;;;3.88;1.30;;;;;;;;;;5018794;28;20492;-78
2023/07/29 12:19:34;;;;;;;3.13;1.88;;;;;;;;;;4998306;28;20041;-79
2023/07/29 12:22:00;;;;;;;3.15;2.00;;;;;;;;;;4982307;28;20121;-78
2023/07/29 12:24:25;;;;;;;6.25;2.88;;;;;;;;;;4998391;28;20113;-78
2023/07/29 12:26:51;;;;;;;4.18;2.95;;;;;;;;;;5015796;28;20106;-78
2023/07/29 12:29:21;;;;;;;5.38;3.42;;;;;;;;;;5016014;28;20025;-79
2023/07/29 12:31:47;;;;;;;4.97;3.90;;;;;;;;;;5014532;28;20065;-78
2023/07/29 12:34:21;;;;;;;5.57;3.90;;;;;;;;;;5003714;28;20045;-78
2023/07/29 12:36:49;;;;;;;3.45;2.60;;;;;;;;;;4996983;28;20021;-78
2023/07/29 12:39:26;;;;;;;4.30;3.25;;;;;;;;;;5011309;28;20034;-78
2023/07/29 12:41:54;;;;;;;3.25;2.42;;;;;;;;;;4997524;28;20034;-79
2023/07/29 12:44:19;;;;;;;5.47;4.03;;;;;;;;;;4992546;28;20098;-79
2023/07/29 12:46:45;;;;;;;5.03;3.13;;;;;;;;;;4997523;28;20042;-78
2023/07/29 12:49:11;;;;;;;4.68;3.75;;;;;;;;;;5015524;28;20100;-78
2023/07/29 12:51:37;;;;;;;5.07;3.47;;;;;;;;;;4998705;28;20092;-78
2023/07/29 12:54:04;;;;;;;6.72;4.75;;;;;;;;;;5016171;28;20026;-88
2023/07/29 12:56:33;;;;;;;6.30;5.70;;;;;;;;;;4998486;28;20021;-88
2023/07/29 12:58:59;;;;;;;7.65;5.97;;;;;;;;;;5015774;28;20092;-88
2023/07/29 13:01:25;;;;;;;6.90;4.93;;;;;;;;;;5016118;28;20030;-88
2023/07/29 13:03:50;;;;;;;4.95;4.15;;;;;;;;;;5005816;28;20412;-87
2023/07/29 13:06:16;;;;;;;6.63;4.80;;;;;;;;;;5001184;28;20029;-88
2023/07/29 13:08:42;;;;;;;11.00;3.70;;;;;;;;;;4998851;28;20026;-88
2023/07/29 13:11:07;;;;;;;8.13;2.90;;;;;;;;;;4998473;28;20026;-87
2023/07/29 13:13:33;;;;;;;4.38;2.78;;;;;;;;;;5005903;28;20026;-87
2023/07/29 13:15:58;;;;;;;4.22;2.92;;;;;;;;;;5011978;28;20025;-88
2023/07/29 13:18:24;;;;;;;4.50;2.90;;;;;;;;;;5016673;28;20041;-88
2023/07/29 13:20:49;;;;;;;3.30;2.67;;;;;;;;;;4998994;28;20033;-88
2023/07/29 13:23:15;;;;;;;4.00;3.00;;;;;;;;;;4982523;28;20109;-89
2023/07/29 13:25:41;;;;;;;3.42;2.63;;;;;;;;;;5014015;28;20023;-89
2023/07/29 13:28:08;;;;;;;5.35;2.28;;;;;;;;;;5012418;28;20390;-88
2023/07/29 13:30:33;;;;;;;2.90;1.85;;;;;;;;;;4996249;28;20028;-88
2023/07/29 13:32:59;;;;;;;2.00;1.50;;;;;;;;;;5002694;28;20018;-90
2023/07/29 13:35:25;;;;;;;2.13;1.45;;;;;;;;;;5003775;28;20005;-89
2023/07/29 13:37:50;;;;;;;3.90;1.90;;;;;;;;;;5004346;28;20033;-89
2023/07/29 13:40:16;;;;;;;3.17;1.63;;;;;;;;;;5025204;28;20022;-89
2023/07/29 13:42:41;;;;;;;2.22;1.60;;;;;;;;;;5012685;28;20029;-90
2023/07/29 13:45:07;;;;;;;2.67;1.70;;;;;;;;;;5010934;28;20026;-89
2023/07/29 13:47:33;;;;;;;4.03;2.22;;;;;;;;;;5016442;28;20117;-90
2023/07/29 13:49:59;;;;;;;3.78;2.22;;;;;;;;;;5029406;28;20003;-89
2023/07/29 13:52:25;;;;;;;2.85;2.22;;;;;;;;;;5007187;28;20050;-89
2023/07/29 13:54:50;;;;;;;3.13;1.90;;;;;;;;;;5018581;28;20021;-88
2023/07/29 13:57:15;;;;;;;2.63;2.17;;;;;;;;;;5043689;23;20057;-88
2023/07/29 13:59:41;;;;;;;3.45;2.60;;;;;;;;;;5014250;28;20097;-90
2023/07/29 14:02:07;;;;;;;3.83;2.40;;;;;;;;;;5013534;28;20478;-90
2023/07/29 14:04:33;;;;;;;9.20;2.90;;;;;;;;;;4990452;28;20473;-78
2023/07/29 14:06:59;;;;;;;4.75;2.60;;;;;;;;;;5007995;28;20048;-78
2023/07/29 14:09:25;;;;;;;7.10;2.95;;;;;;;;;;5001068;28;20465;-78
2023/07/29 14:11:50;;;;;;;3.60;2.83;;;;;;;;;;4996554;28;20037;-78
2023/07/29 14:14:16;;;;;;;6.07;2.85;;;;;;;;;;4999676;28;20030;-78
2023/07/29 14:16:42;;;;;;;3.63;2.50;;;;;;;;;;4995461;28;20074;-78
2023/07/29 14:19:08;;;;;;;3.30;2.30;;;;;;;;;;5007653;28;20049;-78
2023/07/29 14:21:33;;;;;;;4.72;2.70;;;;;;;;;;5006305;28;20033;-77
2023/07/29 14:23:59;;;;;;;4.38;2.63;;;;;;;;;;4999819;28;20577;-79
2023/07/29 14:26:24;;;;;;;7.13;2.70;;;;;;;;;;4999331;28;20368;-79
2023/07/29 14:28:50;;;;;;;4.13;2.42;;;;;;;;;;4993842;28;20026;-78
2023/07/29 14:31:16;;;;;;;3.92;1.90;;;;;;;;;;4995827;28;20406;-78
2023/07/29 14:33:43;;;;;;;3.85;2.03;;;;;;;;;;4995805;28;20036;-79
2023/07/29 14:36:08;;;;;;;3.65;2.13;;;;;;;;;;4998297;28;20036;-79
2023/07/29 14:38:35;;;;;;;4.55;2.47;;;;;;;;;;4997759;28;20116;-78
2023/07/29 14:41:00;;;;;;;3.25;2.30;;;;;;;;;;4998203;28;20030;-78
2023/07/29 14:43:25;;;;;;;4.32;2.55;;;;;;;;;;4994568;28;20019;-78